• Join FlightAware (Why Join?)
  • Login
  • US Flag 
Trick or treat! (Boo!!) 
04:28AM EDT


 

Airport Tracker/Info


-or-


 

Live Flight TrackerFlight Track Log ✈ UAL3756 ✈ 03-Oct-2013 ✈ KORD - KCLT

Flight Track Log - Related Links

Times and Time Zones

All times are in EDT time to prevent confusion due to time zone crossing. See the UAL3756 flight status page for this flight to view local times or setup timezone preferences in your user account.

Time Position Orientation Groundspeed Altitude Reporting Facility
EDT Latitude Longitude Course Direction KTS MPH feet Rate Location/Type
07:50PM 41.9333 -87.9167 180° South 158 182 2,100  Level Chicago TRACON
07:51PM 41.8833 -87.9000 166° South 194 223 3,800 1,680 Climbing Chicago TRACON
07:52PM 41.8333 -87.8667 154° Southeast 272 313 5,300 2,460 Climbing Chicago TRACON
07:54PM 41.7389 -87.7964 151° Southeast 286 329 9,600 2,820 Climbing Chicago Center
07:55PM 41.5129 -87.3639 168° South  Level Estimated
07:55PM 41.6656 -87.7447 152° Southeast 296 341 12,300  Level Chicago Center
07:56PM 41.4017 -87.3642 180° South  Level FlightAware Approximate
07:56PM 41.5889 -87.6900 152° Southeast 308 354 14,800  Level Chicago Center
07:57PM 41.5056 -87.6297 152° Southeast 332 382 16,200 1,800 Climbing Chicago Center
07:58PM 41.3908 -87.5664 157° South 367 422 18,600 1,980 Climbing Chicago Center
07:59PM 41.2881 -87.5483 172° South 371 427 20,500 1,620 Climbing Chicago Center
08:00PM 41.1833 -87.5294 172° South 377 434 22,100 1,500 Climbing Chicago Center
08:01PM 41.0761 -87.5003 168° South 390 449 23,700 1,680 Climbing Chicago Center
08:02PM 40.9461 -87.4642 168° South 399 459 25,600 1,680 Climbing Chicago Center
08:03PM 40.8375 -87.4347 168° South 399 459 27,200 1,260 Climbing Chicago Center
08:04PM 40.7256 -87.4053 169° South 407 468 28,300 960 Climbing Chicago Center
08:05PM 40.6097 -87.3750 169° South 419 482 29,300 840 Climbing Chicago Center
08:06PM 40.4908 -87.3428 168° South 432 497 30,100 780 Climbing Chicago Center
08:07PM 40.3819 -87.2700 153° Southeast 455 524 31,000 1,140 Climbing Chicago Center
08:08PM 40.2592 -87.1556 145° Southeast 457 526 32,500 1,140 Climbing Chicago Center
08:09PM 40.1569 -87.0603 145° Southeast 453 521 33,400 780 Climbing Chicago Center
08:10PM 40.0728 -86.9817 144° Southeast 457 526 33,900 660 Climbing Indianapolis Center
08:11PM 39.9667 -86.8858 145° Southeast 466 536 34,600 720 Climbing Indianapolis Center
08:12PM 39.8561 -86.7953 148° Southeast 472 543 35,500 660 Climbing Indianapolis Center
08:13PM 39.7461 -86.7036 147° Southeast 475 547 36,000 240 Climbing Indianapolis Center
08:14PM 39.6636 -86.5650 128° Southeast 493 567 36,000  Level Indianapolis Center
08:15PM 39.5825 -86.3822 120° Southeast 499 574 36,000  Level Indianapolis Center
08:16PM 39.5158 -86.2272 119° Southeast 504 580 36,000  Level Indianapolis Center
08:17PM 39.4481 -86.0717 119° Southeast 504 580 36,000 240 Level Indianapolis Center
08:18PM 39.3797 -85.9167 120° Southeast 502 578 36,600 480 Climbing Indianapolis Center
08:19PM 39.2972 -85.7322 120° Southeast 497 572 37,000 180 Climbing Indianapolis Center
08:20PM 39.2283 -85.5778 120° Southeast 500 575 37,000  Level Indianapolis Center
08:21PM 39.1358 -85.4456 132° Southeast 501 577 37,000  Level Indianapolis Center
08:22PM 39.0406 -85.3208 135° Southeast 492 566 37,000  Level Indianapolis Center
08:23PM 38.9436 -85.1972 135° Southeast 492 566 37,000  Level Indianapolis Center
08:24PM 38.8469 -85.0725 135° Southeast 495 570 37,000  Level Indianapolis Center
08:26PM 38.7319 -84.9247 135° Southeast 490 564 37,000  Level Indianapolis Center
08:27PM 38.6356 -84.8019 135° Southeast 486 559 37,000  Level Indianapolis Center
08:28PM 38.5297 -84.6703 136° Southeast 492 566 37,000  Level Indianapolis Center
08:29PM 38.4331 -84.5447 134° Southeast 495 570 37,000  Level Indianapolis Center
08:30PM 38.3372 -84.4206 135° Southeast 492 566 37,000  Level Indianapolis Center
08:31PM 38.2381 -84.2978 136° Southeast 492 566 37,000 -180 Level Indianapolis Center
08:32PM 38.1375 -84.1756 136° Southeast 497 572 36,700 -840 Descending Indianapolis Center
08:33PM 38.0378 -84.0525 136° Southeast 499 574 35,300 -1,800 Descending Indianapolis Center
08:34PM 37.9192 -83.9092 136° Southeast 503 579 33,100 -1,140 Descending Indianapolis Center
08:35PM 37.8242 -83.7872 135° Southeast 488 562 33,000 -60 Descending Indianapolis Center
08:36PM 37.7286 -83.6700 136° Southeast 480 552 33,000  Level Indianapolis Center
08:37PM 37.6311 -83.5525 136° Southeast 483 556 33,000  Level Indianapolis Center
08:38PM 37.5339 -83.4344 136° Southeast 484 557 33,000  Level Indianapolis Center
08:39PM 37.4211 -83.2975 136° Southeast 482 555 33,000  Level Indianapolis Center
08:40PM 37.3236 -83.1800 136° Southeast 484 557 33,000 -420 Level Indianapolis Center
08:41PM 37.2258 -83.0622 136° Southeast 484 557 32,200 -960 Descending Indianapolis Center
08:42PM 37.1267 -82.9431 136° Southeast 483 556 31,100 -1,020 Descending Indianapolis Center
08:43PM 37.0303 -82.8264 136° Southeast 481 554 30,100 -1,020 Descending Indianapolis Center
08:44PM 36.9264 -82.7044 137° Southeast 495 570 29,100 -540 Descending Indianapolis Center
08:45PM 36.8203 -82.6000 142° Southeast 487 560 29,000 -60 Descending Indianapolis Center
08:46PM 36.6947 -82.5611 166° South 463 533 29,000 -300 Level Indianapolis Center
08:47PM 36.6164 -82.5361 166° South 447 514 28,500 -960 Descending Atlanta Center
08:48PM 36.5153 -82.4606 149° Southeast 442 509 27,500 -1,020 Descending Atlanta Center
08:49PM 36.4161 -82.3669 143° Southeast 439 505 26,500 -1,020 Descending Atlanta Center
08:50PM 36.3189 -82.2761 143° Southeast 439 505 25,500 -1,200 Descending Atlanta Center
08:51PM 36.2278 -82.1856 141° Southeast 430 495 24,100 -1,800 Descending Atlanta Center
08:52PM 36.1367 -82.0975 142° Southeast 425 489 21,900 -2,280 Descending Atlanta Center
08:53PM 36.0456 -82.0072 141° Southeast 425 489 19,600 -2,100 Descending Atlanta Center
08:54PM 35.9503 -81.9147 142° Southeast 418 481 17,700 -1,800 Descending Atlanta Center
08:55PM 35.8694 -81.8375 142° Southeast 387 445 16,000 -1,620 Descending Atlanta Center
08:56PM 35.7953 -81.7731 145° Southeast 353 406 14,500 -1,500 Descending Atlanta Center
08:57PM 35.7275 -81.7058 141° Southeast 312 359 13,100 -1,080 Descending Atlanta Center
08:58PM 35.6572 -81.6389 142° Southeast 319 367 12,400 -840 Descending Atlanta Center
08:58PM 35.6486 -81.6289 137° Southeast 314 361 12,200 -1,320 Descending Atlanta Center
08:59PM 35.5953 -81.5692 138° Southeast 319 367 11,100 -1,260 Descending Atlanta Center
08:59PM 35.5933 -81.5692 180° South 311 358 11,100 -300 Level Atlanta Center
09:00PM 35.5417 -81.4889 128° Southeast 309 356 10,800 -420 Descending Atlanta Center
09:00PM 35.5394 -81.4814 110° East 301 346 10,700 -1,080 Descending Atlanta Center
09:01PM 35.5333 -81.3950 95° East 316 364 9,800 -840 Descending Atlanta Center
09:01PM 35.5333 -81.3950 95° East 288 331 9,900 -720 Climbing Atlanta Center
09:02PM 35.5647 -81.3019 67° East 276 318 9,100 -780 Descending Atlanta Center
09:02PM 35.5625 -81.2969 119° Southeast 290 334 9,100 -120 Level Atlanta Center
09:03PM 35.5689 -81.2100 85° East 276 318 9,000 -120 Descending Atlanta Center
09:03PM 35.5689 -81.2072 90° East 252 290 9,000 -300 Level Atlanta Center
09:04PM 35.5644 -81.1106 93° East 247 284 8,700 -720 Descending Atlanta Center
09:05PM 35.5400 -81.0475 115° Southeast 245 282 7,700 -1,320 Descending Atlanta Center
09:05PM 35.5356 -81.0400 126° Southeast 244 281 7,500 -1,020 Descending Atlanta Center
09:06PM 35.4989 -80.9878 131° Southeast 212 244 6,600 -1,200 Descending Atlanta Center
09:07PM 35.4483 -80.9719 166° South 195 224 5,200 -1,380 Descending Atlanta Center
09:08PM 35.3961 -80.9711 179° South 167 192 3,900 -1,080 Descending Atlanta Center
09:09PM 35.3481 -80.9653 174° South 170 196 3,000 -900 Descending Atlanta Center
09:10PM 35.3000 -80.9622 177° South 159 183 2,200 -720 Descending Atlanta Center
09:11PM 35.2686 -80.9581 174° South 129 148 1,700 -660 Descending Atlanta Center
09:12PM 35.2311 -80.9569 179° South 127 146 1,000 -720 Descending Atlanta Center